sensor_id;sensor_type;location;lat;lon;timestamp;P1;durP1;ratioP1;P2;durP2;ratioP2
62673;SDS011;62269;47.594;17.638;2023-11-21T00:00:37;16.83;;;12.68;;
62673;SDS011;62269;47.594;17.638;2023-11-21T00:01:34;16.40;;;12.40;;
62673;SDS011;62269;47.594;17.638;2023-11-21T00:02:33;16.37;;;13.02;;
62673;SDS011;62269;47.594;17.638;2023-11-21T00:03:32;16.23;;;11.95;;
62673;SDS011;62269;47.594;17.638;2023-11-21T00:04:30;17.23;;;12.60;;
62673;SDS011;62269;47.594;17.638;2023-11-21T00:05:29;20.40;;;13.32;;
62673;SDS011;62269;47.594;17.638;2023-11-21T00:06:27;17.10;;;12.82;;
62673;SDS011;62269;47.594;17.638;2023-11-21T00:07:27;17.52;;;12.80;;
62673;SDS011;62269;47.594;17.638;2023-11-21T00:08:25;16.33;;;12.13;;
62673;SDS011;62269;47.594;17.638;2023-11-21T00:09:24;15.48;;;12.25;;
62673;SDS011;62269;47.594;17.638;2023-11-21T00:10:21;14.30;;;12.00;;
62673;SDS011;62269;47.594;17.638;2023-11-21T00:11:20;15.93;;;13.62;;
62673;SDS011;62269;47.594;17.638;2023-11-21T00:12:21;18.30;;;13.73;;
62673;SDS011;62269;47.594;17.638;2023-11-21T00:13:21;15.90;;;12.45;;
62673;SDS011;62269;47.594;17.638;2023-11-21T00:14:19;17.85;;;11.68;;
62673;SDS011;62269;47.594;17.638;2023-11-21T00:15:18;14.48;;;11.18;;
62673;SDS011;62269;47.594;17.638;2023-11-21T00:16:16;15.60;;;12.50;;
62673;SDS011;62269;47.594;17.638;2023-11-21T00:17:15;16.65;;;11.88;;
62673;SDS011;62269;47.594;17.638;2023-11-21T00:18:13;15.10;;;11.57;;
62673;SDS011;62269;47.594;17.638;2023-11-21T00:19:12;14.82;;;11.88;;
62673;SDS011;62269;47.594;17.638;2023-11-21T00:20:10;16.52;;;12.48;;
62673;SDS011;62269;47.594;17.638;2023-11-21T00:21:10;15.27;;;11.40;;
62673;SDS011;62269;47.594;17.638;2023-11-21T00:22:09;14.80;;;11.50;;
62673;SDS011;62269;47.594;17.638;2023-11-21T00:23:07;15.27;;;11.07;;
62673;SDS011;62269;47.594;17.638;2023-11-21T00:24:06;13.40;;;11.27;;
62673;SDS011;62269;47.594;17.638;2023-11-21T00:25:05;14.13;;;10.98;;
62673;SDS011;62269;47.594;17.638;2023-11-21T00:26:05;12.85;;;10.10;;
62673;SDS011;62269;47.594;17.638;2023-11-21T00:27:04;13.80;;;10.88;;
62673;SDS011;62269;47.594;17.638;2023-11-21T00:28:02;14.02;;;10.88;;
62673;SDS011;62269;47.594;17.638;2023-11-21T00:30:05;16.75;;;11.05;;
62673;SDS011;62269;47.594;17.638;2023-11-21T00:31:04;14.13;;;10.77;;
62673;SDS011;62269;47.594;17.638;2023-11-21T00:32:02;15.00;;;10.38;;
62673;SDS011;62269;47.594;17.638;2023-11-21T00:33:04;12.37;;;8.80;;
62673;SDS011;62269;47.594;17.638;2023-11-21T00:35:02;11.70;;;10.23;;
62673;SDS011;62269;47.594;17.638;2023-11-21T00:36:00;18.25;;;10.93;;
62673;SDS011;62269;47.594;17.638;2023-11-21T00:36:59;15.50;;;9.93;;
62673;SDS011;62269;47.594;17.638;2023-11-21T00:37:57;14.05;;;10.27;;
62673;SDS011;62269;47.594;17.638;2023-11-21T00:38:55;12.80;;;9.60;;
62673;SDS011;62269;47.594;17.638;2023-11-21T00:39:54;11.63;;;9.80;;
62673;SDS011;62269;47.594;17.638;2023-11-21T00:40:53;13.57;;;10.25;;
62673;SDS011;62269;47.594;17.638;2023-11-21T00:41:53;11.85;;;9.90;;
62673;SDS011;62269;47.594;17.638;2023-11-21T00:42:51;14.27;;;10.25;;
62673;SDS011;62269;47.594;17.638;2023-11-21T00:43:50;14.13;;;9.75;;
62673;SDS011;62269;47.594;17.638;2023-11-21T00:44:47;14.68;;;10.20;;
62673;SDS011;62269;47.594;17.638;2023-11-21T00:45:45;15.90;;;11.45;;
62673;SDS011;62269;47.594;17.638;2023-11-21T00:46:46;14.85;;;10.02;;
62673;SDS011;62269;47.594;17.638;2023-11-21T00:47:44;13.35;;;10.32;;
62673;SDS011;62269;47.594;17.638;2023-11-21T00:48:42;12.75;;;10.35;;
62673;SDS011;62269;47.594;17.638;2023-11-21T00:49:41;12.07;;;9.45;;
62673;SDS011;62269;47.594;17.638;2023-11-21T00:50:40;11.80;;;9.32;;
62673;SDS011;62269;47.594;17.638;2023-11-21T00:51:39;12.27;;;9.40;;
62673;SDS011;62269;47.594;17.638;2023-11-21T00:52:37;14.77;;;10.00;;
62673;SDS011;62269;47.594;17.638;2023-11-21T00:53:36;12.95;;;9.80;;
62673;SDS011;62269;47.594;17.638;2023-11-21T00:54:34;14.98;;;10.20;;
62673;SDS011;62269;47.594;17.638;2023-11-21T00:55:32;13.18;;;10.55;;
62673;SDS011;62269;47.594;17.638;2023-11-21T00:56:31;14.20;;;10.50;;
62673;SDS011;62269;47.594;17.638;2023-11-21T00:57:30;19.30;;;11.20;;
62673;SDS011;62269;47.594;17.638;2023-11-21T00:58:29;15.35;;;11.05;;
62673;SDS011;62269;47.594;17.638;2023-11-21T00:59:27;13.13;;;10.32;;
62673;SDS011;62269;47.594;17.638;2023-11-21T01:00:25;11.20;;;9.85;;
62673;SDS011;62269;47.594;17.638;2023-11-21T01:01:23;14.52;;;10.63;;
62673;SDS011;62269;47.594;17.638;2023-11-21T01:02:21;12.27;;;10.80;;
62673;SDS011;62269;47.594;17.638;2023-11-21T01:03:20;16.83;;;12.07;;
62673;SDS011;62269;47.594;17.638;2023-11-21T01:04:18;12.50;;;10.75;;
62673;SDS011;62269;47.594;17.638;2023-11-21T01:05:16;13.32;;;10.75;;
62673;SDS011;62269;47.594;17.638;2023-11-21T01:06:16;15.10;;;11.18;;
62673;SDS011;62269;47.594;17.638;2023-11-21T01:07:15;14.52;;;11.02;;
62673;SDS011;62269;47.594;17.638;2023-11-21T01:08:13;15.50;;;12.07;;
62673;SDS011;62269;47.594;17.638;2023-11-21T01:09:11;13.50;;;11.23;;
62673;SDS011;62269;47.594;17.638;2023-11-21T01:10:10;13.15;;;10.88;;
62673;SDS011;62269;47.594;17.638;2023-11-21T01:11:08;14.93;;;10.82;;
62673;SDS011;62269;47.594;17.638;2023-11-21T01:12:09;16.85;;;11.48;;
62673;SDS011;62269;47.594;17.638;2023-11-21T01:13:08;14.50;;;9.88;;
62673;SDS011;62269;47.594;17.638;2023-11-21T01:14:07;17.62;;;10.68;;
62673;SDS011;62269;47.594;17.638;2023-11-21T01:15:05;11.90;;;10.20;;
62673;SDS011;62269;47.594;17.638;2023-11-21T01:16:05;15.38;;;10.63;;
62673;SDS011;62269;47.594;17.638;2023-11-21T01:17:03;15.88;;;11.05;;
62673;SDS011;62269;47.594;17.638;2023-11-21T01:18:02;14.57;;;10.27;;
62673;SDS011;62269;47.594;17.638;2023-11-21T01:19:01;15.13;;;11.25;;
62673;SDS011;62269;47.594;17.638;2023-11-21T01:20:00;14.40;;;10.80;;
62673;SDS011;62269;47.594;17.638;2023-11-21T01:20:58;14.73;;;9.95;;
62673;SDS011;62269;47.594;17.638;2023-11-21T01:21:57;14.48;;;10.57;;
62673;SDS011;62269;47.594;17.638;2023-11-21T01:22:55;13.35;;;10.65;;
62673;SDS011;62269;47.594;17.638;2023-11-21T01:23:54;15.93;;;10.85;;
62673;SDS011;62269;47.594;17.638;2023-11-21T01:24:54;14.02;;;9.45;;
62673;SDS011;62269;47.594;17.638;2023-11-21T01:25:53;13.50;;;10.88;;
62673;SDS011;62269;47.594;17.638;2023-11-21T01:26:52;12.50;;;10.13;;
62673;SDS011;62269;47.594;17.638;2023-11-21T01:27:50;11.35;;;9.88;;
62673;SDS011;62269;47.594;17.638;2023-11-21T01:28:49;12.32;;;10.13;;
62673;SDS011;62269;47.594;17.638;2023-11-21T01:29:47;13.60;;;10.35;;
62673;SDS011;62269;47.594;17.638;2023-11-21T01:30:45;12.02;;;10.05;;
62673;SDS011;62269;47.594;17.638;2023-11-21T01:31:43;14.68;;;11.52;;
62673;SDS011;62269;47.594;17.638;2023-11-21T01:32:42;14.10;;;10.38;;
62673;SDS011;62269;47.594;17.638;2023-11-21T01:33:41;11.48;;;9.60;;
62673;SDS011;62269;47.594;17.638;2023-11-21T01:34:39;15.27;;;11.27;;
62673;SDS011;62269;47.594;17.638;2023-11-21T01:35:37;12.77;;;10.18;;
62673;SDS011;62269;47.594;17.638;2023-11-21T01:36:35;12.77;;;9.98;;
62673;SDS011;62269;47.594;17.638;2023-11-21T01:37:33;12.90;;;10.63;;
62673;SDS011;62269;47.594;17.638;2023-11-21T01:38:32;13.13;;;9.60;;
62673;SDS011;62269;47.594;17.638;2023-11-21T01:39:30;14.07;;;10.35;;
62673;SDS011;62269;47.594;17.638;2023-11-21T01:40:28;12.82;;;10.20;;
62673;SDS011;62269;47.594;17.638;2023-11-21T01:41:27;13.27;;;11.02;;
62673;SDS011;62269;47.594;17.638;2023-11-21T01:42:25;11.75;;;9.88;;
62673;SDS011;62269;47.594;17.638;2023-11-21T01:43:24;12.45;;;10.05;;
62673;SDS011;62269;47.594;17.638;2023-11-21T01:44:22;15.25;;;11.05;;
62673;SDS011;62269;47.594;17.638;2023-11-21T01:45:21;12.75;;;10.48;;
62673;SDS011;62269;47.594;17.638;2023-11-21T01:46:19;15.23;;;10.35;;
62673;SDS011;62269;47.594;17.638;2023-11-21T01:47:18;13.15;;;10.32;;
62673;SDS011;62269;47.594;17.638;2023-11-21T01:48:16;13.77;;;9.75;;
62673;SDS011;62269;47.594;17.638;2023-11-21T01:49:14;14.35;;;9.95;;
62673;SDS011;62269;47.594;17.638;2023-11-21T01:50:35;12.13;;;10.77;;
62673;SDS011;62269;47.594;17.638;2023-11-21T01:51:33;13.02;;;10.73;;
62673;SDS011;62269;47.594;17.638;2023-11-21T01:52:32;12.27;;;10.40;;
62673;SDS011;62269;47.594;17.638;2023-11-21T01:53:31;12.48;;;9.80;;
62673;SDS011;62269;47.594;17.638;2023-11-21T01:54:29;13.23;;;9.60;;
62673;SDS011;62269;47.594;17.638;2023-11-21T01:55:28;11.35;;;9.73;;
62673;SDS011;62269;47.594;17.638;2023-11-21T01:56:27;12.15;;;10.23;;
62673;SDS011;62269;47.594;17.638;2023-11-21T01:57:25;12.60;;;10.20;;
62673;SDS011;62269;47.594;17.638;2023-11-21T01:58:23;11.65;;;10.25;;
62673;SDS011;62269;47.594;17.638;2023-11-21T01:59:21;13.27;;;10.10;;
62673;SDS011;62269;47.594;17.638;2023-11-21T02:00:19;13.10;;;10.35;;
62673;SDS011;62269;47.594;17.638;2023-11-21T02:01:18;12.52;;;9.95;;
62673;SDS011;62269;47.594;17.638;2023-11-21T02:02:16;11.07;;;9.85;;
62673;SDS011;62269;47.594;17.638;2023-11-21T02:03:15;12.25;;;10.10;;
62673;SDS011;62269;47.594;17.638;2023-11-21T02:04:13;13.73;;;10.57;;
62673;SDS011;62269;47.594;17.638;2023-11-21T02:05:16;11.38;;;9.65;;
62673;SDS011;62269;47.594;17.638;2023-11-21T02:06:18;12.20;;;10.10;;
62673;SDS011;62269;47.594;17.638;2023-11-21T02:07:17;11.50;;;10.23;;
62673;SDS011;62269;47.594;17.638;2023-11-21T02:08:16;13.73;;;10.13;;
62673;SDS011;62269;47.594;17.638;2023-11-21T02:09:16;12.40;;;10.13;;
62673;SDS011;62269;47.594;17.638;2023-11-21T02:10:15;12.70;;;9.73;;
62673;SDS011;62269;47.594;17.638;2023-11-21T02:11:13;12.75;;;9.07;;
62673;SDS011;62269;47.594;17.638;2023-11-21T02:12:13;13.68;;;9.80;;
62673;SDS011;62269;47.594;17.638;2023-11-21T02:13:12;14.00;;;10.20;;
62673;SDS011;62269;47.594;17.638;2023-11-21T02:14:10;14.87;;;10.20;;
62673;SDS011;62269;47.594;17.638;2023-11-21T02:15:11;10.32;;;9.23;;
62673;SDS011;62269;47.594;17.638;2023-11-21T02:16:13;13.43;;;9.57;;
62673;SDS011;62269;47.594;17.638;2023-11-21T02:17:11;12.23;;;10.05;;
62673;SDS011;62269;47.594;17.638;2023-11-21T02:18:10;10.25;;;9.07;;
62673;SDS011;62269;47.594;17.638;2023-11-21T02:19:08;13.32;;;10.00;;
62673;SDS011;62269;47.594;17.638;2023-11-21T02:20:07;11.85;;;9.50;;
62673;SDS011;62269;47.594;17.638;2023-11-21T02:21:12;12.23;;;9.32;;
62673;SDS011;62269;47.594;17.638;2023-11-21T02:22:10;11.23;;;9.45;;
62673;SDS011;62269;47.594;17.638;2023-11-21T02:23:09;11.35;;;9.18;;
62673;SDS011;62269;47.594;17.638;2023-11-21T02:24:07;11.75;;;9.85;;
62673;SDS011;62269;47.594;17.638;2023-11-21T02:25:05;12.45;;;9.13;;
62673;SDS011;62269;47.594;17.638;2023-11-21T02:26:04;13.40;;;9.60;;
62673;SDS011;62269;47.594;17.638;2023-11-21T02:27:03;11.65;;;10.00;;
62673;SDS011;62269;47.594;17.638;2023-11-21T02:28:02;16.08;;;10.50;;
62673;SDS011;62269;47.594;17.638;2023-11-21T02:29:00;11.05;;;9.40;;
62673;SDS011;62269;47.594;17.638;2023-11-21T02:31:01;14.70;;;10.00;;
62673;SDS011;62269;47.594;17.638;2023-11-21T02:33:01;11.18;;;9.48;;
62673;SDS011;62269;47.594;17.638;2023-11-21T02:33:59;11.02;;;9.25;;
62673;SDS011;62269;47.594;17.638;2023-11-21T02:34:58;13.45;;;9.00;;
62673;SDS011;62269;47.594;17.638;2023-11-21T02:36:00;10.57;;;8.90;;
62673;SDS011;62269;47.594;17.638;2023-11-21T02:36:58;11.75;;;8.77;;
62673;SDS011;62269;47.594;17.638;2023-11-21T02:37:56;10.02;;;8.70;;
62673;SDS011;62269;47.594;17.638;2023-11-21T02:38:54;11.95;;;8.98;;
62673;SDS011;62269;47.594;17.638;2023-11-21T02:39:52;12.07;;;9.55;;
62673;SDS011;62269;47.594;17.638;2023-11-21T02:40:51;12.50;;;9.07;;
62673;SDS011;62269;47.594;17.638;2023-11-21T02:41:50;12.37;;;9.27;;
62673;SDS011;62269;47.594;17.638;2023-11-21T02:42:48;10.70;;;9.63;;
62673;SDS011;62269;47.594;17.638;2023-11-21T02:43:49;11.75;;;9.02;;
62673;SDS011;62269;47.594;17.638;2023-11-21T02:44:48;12.15;;;9.73;;
62673;SDS011;62269;47.594;17.638;2023-11-21T02:45:46;10.27;;;8.73;;
62673;SDS011;62269;47.594;17.638;2023-11-21T02:46:45;11.05;;;8.75;;
62673;SDS011;62269;47.594;17.638;2023-11-21T02:47:44;12.52;;;9.88;;
62673;SDS011;62269;47.594;17.638;2023-11-21T02:48:43;12.57;;;8.82;;
62673;SDS011;62269;47.594;17.638;2023-11-21T02:49:41;10.95;;;8.27;;
62673;SDS011;62269;47.594;17.638;2023-11-21T02:50:39;11.02;;;8.75;;
62673;SDS011;62269;47.594;17.638;2023-11-21T02:51:38;11.77;;;9.38;;
62673;SDS011;62269;47.594;17.638;2023-11-21T02:52:36;12.75;;;9.25;;
62673;SDS011;62269;47.594;17.638;2023-11-21T02:53:34;11.52;;;9.07;;
62673;SDS011;62269;47.594;17.638;2023-11-21T02:54:32;10.65;;;8.77;;
62673;SDS011;62269;47.594;17.638;2023-11-21T02:55:33;11.40;;;9.10;;
62673;SDS011;62269;47.594;17.638;2023-11-21T02:56:32;10.95;;;9.07;;
62673;SDS011;62269;47.594;17.638;2023-11-21T02:57:30;13.88;;;9.02;;
62673;SDS011;62269;47.594;17.638;2023-11-21T02:58:29;10.25;;;8.95;;
62673;SDS011;62269;47.594;17.638;2023-11-21T02:59:27;14.23;;;9.10;;
62673;SDS011;62269;47.594;17.638;2023-11-21T03:00:25;12.60;;;8.68;;
62673;SDS011;62269;47.594;17.638;2023-11-21T03:01:23;9.88;;;8.20;;
62673;SDS011;62269;47.594;17.638;2023-11-21T03:02:21;10.23;;;8.43;;
62673;SDS011;62269;47.594;17.638;2023-11-21T03:03:19;9.88;;;8.60;;
62673;SDS011;62269;47.594;17.638;2023-11-21T03:04:18;12.60;;;9.15;;
62673;SDS011;62269;47.594;17.638;2023-11-21T03:05:16;9.95;;;8.45;;
62673;SDS011;62269;47.594;17.638;2023-11-21T03:06:14;9.98;;;8.65;;
62673;SDS011;62269;47.594;17.638;2023-11-21T03:07:12;10.43;;;8.55;;
62673;SDS011;62269;47.594;17.638;2023-11-21T03:08:10;10.65;;;8.77;;
62673;SDS011;62269;47.594;17.638;2023-11-21T03:09:09;10.35;;;8.63;;
62673;SDS011;62269;47.594;17.638;2023-11-21T03:10:08;10.52;;;8.80;;
62673;SDS011;62269;47.594;17.638;2023-11-21T03:11:08;13.05;;;9.35;;
62673;SDS011;62269;47.594;17.638;2023-11-21T03:12:07;10.25;;;8.52;;
62673;SDS011;62269;47.594;17.638;2023-11-21T03:13:05;12.65;;;8.73;;
62673;SDS011;62269;47.594;17.638;2023-11-21T03:14:03;9.95;;;8.13;;
62673;SDS011;62269;47.594;17.638;2023-11-21T03:15:02;11.40;;;9.32;;
62673;SDS011;62269;47.594;17.638;2023-11-21T03:16:01;9.88;;;8.18;;
62673;SDS011;62269;47.594;17.638;2023-11-21T03:16:59;13.13;;;8.38;;
62673;SDS011;62269;47.594;17.638;2023-11-21T03:17:58;9.80;;;8.82;;
62673;SDS011;62269;47.594;17.638;2023-11-21T03:18:56;9.55;;;8.10;;
62673;SDS011;62269;47.594;17.638;2023-11-21T03:19:56;9.63;;;8.57;;
62673;SDS011;62269;47.594;17.638;2023-11-21T03:20:54;9.30;;;7.90;;
62673;SDS011;62269;47.594;17.638;2023-11-21T03:21:53;9.35;;;8.23;;
62673;SDS011;62269;47.594;17.638;2023-11-21T03:22:51;10.88;;;8.15;;
62673;SDS011;62269;47.594;17.638;2023-11-21T03:23:49;11.95;;;8.57;;
62673;SDS011;62269;47.594;17.638;2023-11-21T03:24:49;13.23;;;8.27;;
62673;SDS011;62269;47.594;17.638;2023-11-21T03:25:47;9.73;;;8.23;;
62673;SDS011;62269;47.594;17.638;2023-11-21T03:26:46;12.63;;;8.57;;
62673;SDS011;62269;47.594;17.638;2023-11-21T03:27:44;10.98;;;8.50;;
62673;SDS011;62269;47.594;17.638;2023-11-21T03:28:42;11.20;;;8.18;;
62673;SDS011;62269;47.594;17.638;2023-11-21T03:29:41;10.70;;;7.60;;
62673;SDS011;62269;47.594;17.638;2023-11-21T03:30:42;10.05;;;8.25;;
62673;SDS011;62269;47.594;17.638;2023-11-21T03:31:40;11.73;;;8.50;;
62673;SDS011;62269;47.594;17.638;2023-11-21T03:32:39;10.27;;;7.93;;
62673;SDS011;62269;47.594;17.638;2023-11-21T03:33:37;9.38;;;8.38;;
62673;SDS011;62269;47.594;17.638;2023-11-21T03:34:35;9.38;;;7.47;;
62673;SDS011;62269;47.594;17.638;2023-11-21T03:35:40;11.80;;;8.40;;
62673;SDS011;62269;47.594;17.638;2023-11-21T03:36:39;10.15;;;8.25;;
62673;SDS011;62269;47.594;17.638;2023-11-21T03:37:37;10.85;;;7.57;;
62673;SDS011;62269;47.594;17.638;2023-11-21T03:38:38;9.55;;;7.60;;
62673;SDS011;62269;47.594;17.638;2023-11-21T03:39:37;9.00;;;7.50;;
62673;SDS011;62269;47.594;17.638;2023-11-21T03:40:35;9.25;;;7.87;;
62673;SDS011;62269;47.594;17.638;2023-11-21T03:41:33;9.32;;;8.32;;
62673;SDS011;62269;47.594;17.638;2023-11-21T03:42:31;10.35;;;8.98;;
62673;SDS011;62269;47.594;17.638;2023-11-21T03:43:30;10.15;;;8.55;;
62673;SDS011;62269;47.594;17.638;2023-11-21T03:44:28;12.13;;;8.07;;
62673;SDS011;62269;47.594;17.638;2023-11-21T03:45:26;11.32;;;8.60;;
62673;SDS011;62269;47.594;17.638;2023-11-21T03:46:25;9.30;;;8.00;;
62673;SDS011;62269;47.594;17.638;2023-11-21T03:47:24;11.30;;;7.22;;
62673;SDS011;62269;47.594;17.638;2023-11-21T03:48:23;11.32;;;8.38;;
62673;SDS011;62269;47.594;17.638;2023-11-21T03:49:22;10.02;;;8.13;;
62673;SDS011;62269;47.594;17.638;2023-11-21T03:50:22;11.70;;;7.75;;
62673;SDS011;62269;47.594;17.638;2023-11-21T03:51:20;8.85;;;7.82;;
62673;SDS011;62269;47.594;17.638;2023-11-21T03:52:19;13.05;;;7.90;;
62673;SDS011;62269;47.594;17.638;2023-11-21T03:53:17;8.52;;;7.18;;
62673;SDS011;62269;47.594;17.638;2023-11-21T03:54:15;8.75;;;7.53;;
62673;SDS011;62269;47.594;17.638;2023-11-21T03:55:14;12.35;;;8.70;;
62673;SDS011;62269;47.594;17.638;2023-11-21T03:56:13;9.27;;;8.10;;
62673;SDS011;62269;47.594;17.638;2023-11-21T03:57:11;10.20;;;7.80;;
62673;SDS011;62269;47.594;17.638;2023-11-21T03:58:10;9.63;;;7.40;;
62673;SDS011;62269;47.594;17.638;2023-11-21T03:59:08;9.15;;;7.22;;
62673;SDS011;62269;47.594;17.638;2023-11-21T04:00:06;10.40;;;8.02;;
62673;SDS011;62269;47.594;17.638;2023-11-21T04:01:05;9.57;;;7.18;;
62673;SDS011;62269;47.594;17.638;2023-11-21T04:02:03;9.80;;;7.55;;
62673;SDS011;62269;47.594;17.638;2023-11-21T04:03:02;10.25;;;7.40;;
62673;SDS011;62269;47.594;17.638;2023-11-21T04:04:00;9.65;;;7.57;;
62673;SDS011;62269;47.594;17.638;2023-11-21T04:04:59;10.57;;;7.78;;
62673;SDS011;62269;47.594;17.638;2023-11-21T04:05:58;9.38;;;7.32;;
62673;SDS011;62269;47.594;17.638;2023-11-21T04:07:00;9.30;;;7.00;;
62673;SDS011;62269;47.594;17.638;2023-11-21T04:07:59;8.13;;;7.32;;
62673;SDS011;62269;47.594;17.638;2023-11-21T04:08:58;9.45;;;7.18;;
62673;SDS011;62269;47.594;17.638;2023-11-21T04:09:56;9.82;;;7.15;;
62673;SDS011;62269;47.594;17.638;2023-11-21T04:10:54;10.35;;;7.03;;
62673;SDS011;62269;47.594;17.638;2023-11-21T04:11:53;8.02;;;6.65;;
62673;SDS011;62269;47.594;17.638;2023-11-21T04:12:52;10.35;;;7.25;;
62673;SDS011;62269;47.594;17.638;2023-11-21T04:13:50;8.68;;;6.78;;
62673;SDS011;62269;47.594;17.638;2023-11-21T04:14:49;8.50;;;6.75;;
62673;SDS011;62269;47.594;17.638;2023-11-21T04:15:51;12.57;;;7.43;;
62673;SDS011;62269;47.594;17.638;2023-11-21T04:16:49;8.30;;;6.97;;
62673;SDS011;62269;47.594;17.638;2023-11-21T04:17:48;10.50;;;6.50;;
62673;SDS011;62269;47.594;17.638;2023-11-21T04:18:46;11.30;;;7.62;;
62673;SDS011;62269;47.594;17.638;2023-11-21T04:19:45;11.27;;;6.78;;
62673;SDS011;62269;47.594;17.638;2023-11-21T04:20:43;9.25;;;6.30;;
62673;SDS011;62269;47.594;17.638;2023-11-21T04:21:42;10.18;;;6.60;;
62673;SDS011;62269;47.594;17.638;2023-11-21T04:22:40;7.47;;;6.22;;
62673;SDS011;62269;47.594;17.638;2023-11-21T04:23:41;10.75;;;6.82;;
62673;SDS011;62269;47.594;17.638;2023-11-21T04:24:40;8.95;;;7.20;;
62673;SDS011;62269;47.594;17.638;2023-11-21T04:25:38;7.72;;;6.20;;
62673;SDS011;62269;47.594;17.638;2023-11-21T04:26:37;7.53;;;6.35;;
62673;SDS011;62269;47.594;17.638;2023-11-21T04:27:35;9.13;;;6.30;;
62673;SDS011;62269;47.594;17.638;2023-11-21T04:28:34;7.43;;;6.53;;
62673;SDS011;62269;47.594;17.638;2023-11-21T04:29:33;9.57;;;6.30;;
62673;SDS011;62269;47.594;17.638;2023-11-21T04:30:31;9.95;;;6.43;;
62673;SDS011;62269;47.594;17.638;2023-11-21T04:31:30;7.55;;;6.60;;
62673;SDS011;62269;47.594;17.638;2023-11-21T04:32:29;9.60;;;6.05;;
62673;SDS011;62269;47.594;17.638;2023-11-21T04:33:27;7.85;;;5.50;;
62673;SDS011;62269;47.594;17.638;2023-11-21T04:34:25;9.48;;;5.78;;
62673;SDS011;62269;47.594;17.638;2023-11-21T04:35:24;8.63;;;6.37;;
62673;SDS011;62269;47.594;17.638;2023-11-21T04:36:22;8.98;;;5.55;;
62673;SDS011;62269;47.594;17.638;2023-11-21T04:37:20;7.45;;;5.75;;
62673;SDS011;62269;47.594;17.638;2023-11-21T04:38:18;8.23;;;5.70;;
62673;SDS011;62269;47.594;17.638;2023-11-21T04:39:17;7.72;;;5.55;;
62673;SDS011;62269;47.594;17.638;2023-11-21T04:40:16;8.38;;;5.53;;
62673;SDS011;62269;47.594;17.638;2023-11-21T04:41:15;7.72;;;6.20;;
62673;SDS011;62269;47.594;17.638;2023-11-21T04:42:13;8.50;;;5.72;;
62673;SDS011;62269;47.594;17.638;2023-11-21T04:43:12;9.60;;;6.15;;
62673;SDS011;62269;47.594;17.638;2023-11-21T04:44:10;6.97;;;5.97;;
62673;SDS011;62269;47.594;17.638;2023-11-21T04:45:08;6.78;;;5.87;;
62673;SDS011;62269;47.594;17.638;2023-11-21T04:47:07;8.85;;;6.82;;
62673;SDS011;62269;47.594;17.638;2023-11-21T04:48:05;8.60;;;5.57;;
62673;SDS011;62269;47.594;17.638;2023-11-21T04:49:03;7.22;;;6.25;;
62673;SDS011;62269;47.594;17.638;2023-11-21T04:50:02;7.65;;;5.65;;
62673;SDS011;62269;47.594;17.638;2023-11-21T04:51:00;9.48;;;6.35;;
62673;SDS011;62269;47.594;17.638;2023-11-21T04:52:01;5.85;;;4.78;;
62673;SDS011;62269;47.594;17.638;2023-11-21T04:53:00;7.05;;;5.43;;
62673;SDS011;62269;47.594;17.638;2023-11-21T04:53:59;6.40;;;5.50;;
62673;SDS011;62269;47.594;17.638;2023-11-21T04:54:57;8.23;;;5.55;;
62673;SDS011;62269;47.594;17.638;2023-11-21T04:55:58;8.40;;;6.40;;
62673;SDS011;62269;47.594;17.638;2023-11-21T04:56:56;7.10;;;5.20;;
62673;SDS011;62269;47.594;17.638;2023-11-21T04:58:14;8.27;;;5.53;;
62673;SDS011;62269;47.594;17.638;2023-11-21T04:59:13;8.90;;;6.80;;
62673;SDS011;62269;47.594;17.638;2023-11-21T05:00:11;7.72;;;5.00;;
62673;SDS011;62269;47.594;17.638;2023-11-21T05:01:10;6.53;;;5.40;;
62673;SDS011;62269;47.594;17.638;2023-11-21T05:02:08;9.13;;;5.50;;
62673;SDS011;62269;47.594;17.638;2023-11-21T05:03:23;6.50;;;5.15;;
62673;SDS011;62269;47.594;17.638;2023-11-21T05:04:21;6.12;;;4.95;;
62673;SDS011;62269;47.594;17.638;2023-11-21T05:05:20;5.90;;;5.30;;
62673;SDS011;62269;47.594;17.638;2023-11-21T05:06:19;6.20;;;4.87;;
62673;SDS011;62269;47.594;17.638;2023-11-21T05:07:17;7.12;;;5.25;;
62673;SDS011;62269;47.594;17.638;2023-11-21T05:08:15;7.60;;;5.07;;
62673;SDS011;62269;47.594;17.638;2023-11-21T05:09:14;5.57;;;4.95;;
62673;SDS011;62269;47.594;17.638;2023-11-21T05:10:12;9.15;;;5.50;;
62673;SDS011;62269;47.594;17.638;2023-11-21T05:11:12;6.70;;;5.43;;
62673;SDS011;62269;47.594;17.638;2023-11-21T05:13:35;7.68;;;5.78;;
62673;SDS011;62269;47.594;17.638;2023-11-21T05:14:36;6.12;;;5.12;;
62673;SDS011;62269;47.594;17.638;2023-11-21T05:15:35;8.40;;;6.28;;
62673;SDS011;62269;47.594;17.638;2023-11-21T05:16:34;8.98;;;5.12;;
62673;SDS011;62269;47.594;17.638;2023-11-21T05:17:32;7.37;;;5.40;;
62673;SDS011;62269;47.594;17.638;2023-11-21T05:18:32;7.47;;;5.10;;
62673;SDS011;62269;47.594;17.638;2023-11-21T05:19:31;5.03;;;4.50;;
62673;SDS011;62269;47.594;17.638;2023-11-21T05:20:29;7.45;;;5.57;;
62673;SDS011;62269;47.594;17.638;2023-11-21T05:21:28;6.00;;;4.80;;
62673;SDS011;62269;47.594;17.638;2023-11-21T05:22:29;9.13;;;5.78;;
62673;SDS011;62269;47.594;17.638;2023-11-21T05:23:27;6.25;;;4.65;;
62673;SDS011;62269;47.594;17.638;2023-11-21T05:24:31;7.72;;;4.97;;
62673;SDS011;62269;47.594;17.638;2023-11-21T05:25:29;9.80;;;5.03;;
62673;SDS011;62269;47.594;17.638;2023-11-21T05:26:27;8.07;;;4.85;;
62673;SDS011;62269;47.594;17.638;2023-11-21T05:27:25;8.63;;;5.05;;
62673;SDS011;62269;47.594;17.638;2023-11-21T05:28:23;10.60;;;4.72;;
62673;SDS011;62269;47.594;17.638;2023-11-21T05:29:21;8.18;;;4.87;;
62673;SDS011;62269;47.594;17.638;2023-11-21T05:30:20;8.80;;;5.78;;
62673;SDS011;62269;47.594;17.638;2023-11-21T05:31:19;5.47;;;4.43;;
62673;SDS011;62269;47.594;17.638;2023-11-21T05:32:18;6.87;;;4.82;;
62673;SDS011;62269;47.594;17.638;2023-11-21T05:33:16;8.38;;;4.82;;
62673;SDS011;62269;47.594;17.638;2023-11-21T05:34:14;7.90;;;5.10;;
62673;SDS011;62269;47.594;17.638;2023-11-21T05:35:14;7.87;;;4.35;;
62673;SDS011;62269;47.594;17.638;2023-11-21T05:36:14;7.28;;;4.62;;
62673;SDS011;62269;47.594;17.638;2023-11-21T05:37:12;5.50;;;4.20;;
62673;SDS011;62269;47.594;17.638;2023-11-21T05:38:10;5.60;;;4.32;;
62673;SDS011;62269;47.594;17.638;2023-11-21T05:39:08;6.03;;;4.25;;
62673;SDS011;62269;47.594;17.638;2023-11-21T05:40:08;7.70;;;5.25;;
62673;SDS011;62269;47.594;17.638;2023-11-21T05:41:06;7.68;;;4.40;;
62673;SDS011;62269;47.594;17.638;2023-11-21T05:42:07;5.62;;;5.12;;
62673;SDS011;62269;47.594;17.638;2023-11-21T05:43:07;7.60;;;4.40;;
62673;SDS011;62269;47.594;17.638;2023-11-21T05:44:05;7.95;;;4.70;;
62673;SDS011;62269;47.594;17.638;2023-11-21T05:45:03;4.80;;;4.10;;
62673;SDS011;62269;47.594;17.638;2023-11-21T05:46:09;5.62;;;4.15;;
62673;SDS011;62269;47.594;17.638;2023-11-21T05:47:07;5.95;;;4.40;;
62673;SDS011;62269;47.594;17.638;2023-11-21T05:48:05;6.65;;;4.68;;
62673;SDS011;62269;47.594;17.638;2023-11-21T05:49:04;8.18;;;4.57;;
62673;SDS011;62269;47.594;17.638;2023-11-21T05:50:01;6.78;;;4.72;;
62673;SDS011;62269;47.594;17.638;2023-11-21T05:51:00;7.70;;;5.12;;